Time;durP1;ratioP1;P1;durP2;ratioP2;P2;SDS_P1;SDS_P2;PMS_P1;PMS_P2;Temp;Humidity;BMP_temperature;BMP_pressure;BME280_temperature;BME280_humidity;BME280_pressure;Samples;Min_cycle;Max_cycle;Signal;HPM_P1;HPM_P2
2023/01/31 00:00:18;;;;;;;15.82;11.32;;;;;;;4.60;50.80;98982.69;5047909;28;21028;-53
2023/01/31 00:02:46;;;;;;;14.93;9.67;;;;;;;4.73;49.68;98978.84;5047388;28;20248;-53
2023/01/31 00:05:15;;;;;;;16.93;10.30;;;;;;;4.89;49.57;98996.28;5045700;28;20568;-53
2023/01/31 00:07:42;;;;;;;22.27;10.90;;;;;;;4.85;48.61;98975.81;5045113;28;20185;-53
2023/01/31 00:10:10;;;;;;;13.77;9.60;;;;;;;4.97;48.73;98994.84;5043738;28;20196;-53
2023/01/31 00:12:37;;;;;;;16.63;9.77;;;;;;;5.02;49.16;99002.63;5045509;28;20758;-53
2023/01/31 00:15:05;;;;;;;17.30;9.67;;;;;;;5.03;48.80;98994.16;5046267;28;20190;-52
2023/01/31 00:17:32;;;;;;;13.87;9.73;;;;;;;5.06;49.17;98992.56;5046634;28;20189;-53
2023/01/31 00:20:00;;;;;;;14.03;9.33;;;;;;;5.04;50.40;98996.78;5042422;28;20624;-52
2023/01/31 00:22:27;;;;;;;13.60;9.53;;;;;;;5.11;49.61;98992.72;5045632;28;20193;-52
2023/01/31 00:24:53;;;;;;;13.03;8.90;;;;;;;5.09;48.96;98995.22;5045219;28;20189;-55
2023/01/31 00:27:20;;;;;;;16.57;10.10;;;;;;;5.06;49.36;99000.22;5045176;28;20199;-52
2023/01/31 00:29:47;;;;;;;12.07;9.17;;;;;;;5.09;49.49;98990.13;5034896;28;20202;-53
2023/01/31 00:32:14;;;;;;;14.17;9.63;;;;;;;5.11;48.93;98992.72;5033486;28;20228;-53
2023/01/31 00:34:41;;;;;;;16.00;9.90;;;;;;;5.13;48.77;98999.59;5033888;28;20193;-53
2023/01/31 00:37:09;;;;;;;14.03;10.57;;;;;;;5.12;49.39;98992.75;5033616;28;20224;-53
2023/01/31 00:39:36;;;;;;;16.97;10.47;;;;;;;5.07;49.62;98980.72;5033616;28;20589;-53
2023/01/31 00:42:03;;;;;;;13.83;10.30;;;;;;;5.06;49.35;98979.84;5033701;28;20569;-53
2023/01/31 00:44:29;;;;;;;17.33;10.40;;;;;;;5.08;48.95;98985.84;5033616;28;20199;-53
2023/01/31 00:46:56;;;;;;;17.77;10.17;;;;;;;5.05;49.22;98980.69;5033910;28;20194;-53
2023/01/31 00:49:23;;;;;;;16.03;10.20;;;;;;;5.05;50.10;98983.25;5033450;28;20723;-53
2023/01/31 00:51:50;;;;;;;14.33;9.20;;;;;;;4.97;49.62;98955.81;5033695;28;20227;-53
2023/01/31 00:54:18;;;;;;;13.43;9.53;;;;;;;5.05;49.87;98979.81;5033396;28;20190;-53
2023/01/31 00:56:45;;;;;;;14.10;9.33;;;;;;;5.09;50.55;98976.53;5033360;28;20196;-53
2023/01/31 00:59:12;;;;;;;13.47;9.10;;;;;;;5.10;50.57;98979.13;5033398;28;20546;-53
2023/01/31 01:01:39;;;;;;;13.67;8.43;;;;;;;5.14;50.63;98995.34;5034921;28;20262;-53
2023/01/31 01:04:06;;;;;;;13.67;8.90;;;;;;;5.12;49.93;98992.75;5033451;28;20652;-54
2023/01/31 01:06:33;;;;;;;12.87;8.33;;;;;;;5.22;50.03;98987.09;5033006;28;20185;-54
2023/01/31 01:08:59;;;;;;;9.60;7.73;;;;;;;5.26;50.41;98988.94;5033420;28;20251;-54
2023/01/31 01:11:30;;;;;;;13.87;7.80;;;;;;;5.27;50.44;98995.75;5033058;28;20189;-54
2023/01/31 01:13:58;;;;;;;13.70;8.67;;;;;;;5.28;50.36;98991.50;5033069;28;20272;-54
2023/01/31 01:16:26;;;;;;;13.77;8.77;;;;;;;5.29;50.62;98989.03;5033337;28;20193;-54
2023/01/31 01:18:54;;;;;;;11.97;8.47;;;;;;;5.28;50.73;98981.34;5033563;28;20188;-54
2023/01/31 01:21:23;;;;;;;13.77;9.17;;;;;;;5.27;50.76;98979.63;5033062;28;20197;-54
2023/01/31 01:23:50;;;;;;;13.23;8.43;;;;;;;5.31;50.89;98987.38;5032996;28;20200;-54
2023/01/31 01:26:19;;;;;;;15.87;9.40;;;;;;;5.38;50.72;98989.28;5032831;28;20247;-54
2023/01/31 01:28:48;;;;;;;11.47;8.17;;;;;;;5.35;51.73;98994.31;5032649;28;20186;-54
2023/01/31 01:31:16;;;;;;;13.17;9.30;;;;;;;5.44;51.97;98996.22;5032385;28;20191;-54
2023/01/31 01:33:43;;;;;;;12.73;8.37;;;;;;;5.41;52.36;98987.66;5032398;28;20226;-55
2023/01/31 01:36:12;;;;;;;12.50;8.40;;;;;;;5.41;52.79;98987.66;5032682;28;20320;-53
2023/01/31 01:38:40;;;;;;;12.93;8.77;;;;;;;5.38;53.07;98982.47;5032573;28;20190;-54
2023/01/31 01:41:08;;;;;;;15.23;8.20;;;;;;;5.33;54.12;98975.53;5032587;28;20582;-55
2023/01/31 01:43:40;;;;;;;12.63;9.13;;;;;;;5.40;53.26;98980.81;5033139;28;20192;-54
2023/01/31 01:46:11;;;;;;;14.20;8.33;;;;;;;5.40;53.95;98974.06;5032458;28;20195;-54
2023/01/31 01:48:38;;;;;;;10.73;7.23;;;;;;;5.45;53.86;98972.50;5032633;28;20561;-54
2023/01/31 01:51:07;;;;;;;9.70;6.67;;;;;;;5.50;54.27;98970.06;5032640;28;20195;-54
2023/01/31 01:53:38;;;;;;;9.23;6.03;;;;;;;5.50;54.54;98970.06;5032217;28;20221;-54
2023/01/31 01:56:09;;;;;;;13.27;6.90;;;;;;;5.50;54.34;98964.97;5032417;28;20203;-54
2023/01/31 01:58:41;;;;;;;11.03;7.17;;;;;;;5.51;54.98;98959.94;5033253;28;20195;-54
2023/01/31 02:01:12;;;;;;;8.20;6.30;;;;;;;5.50;55.08;98972.59;5038407;28;20190;-54
2023/01/31 02:03:40;;;;;;;7.97;5.67;;;;;;;5.62;54.47;98966.19;5032432;28;20199;-54
2023/01/31 02:06:07;;;;;;;12.23;6.70;;;;;;;5.61;54.26;98971.22;5047815;28;20202;-54
2023/01/31 02:08:37;;;;;;;8.27;5.50;;;;;;;5.64;54.57;98953.47;5052359;28;20190;-54
2023/01/31 02:11:09;;;;;;;9.10;5.87;;;;;;;5.65;55.10;98947.56;5052486;28;20569;-55
2023/01/31 02:13:39;;;;;;;6.93;5.80;;;;;;;5.67;54.49;98928.94;5052038;28;20237;-54
2023/01/31 02:16:06;;;;;;;7.13;5.07;;;;;;;5.66;54.94;98939.09;5051949;28;20195;-54
2023/01/31 02:18:34;;;;;;;7.97;5.20;;;;;;;5.70;54.26;98934.13;5051582;28;20191;-53
2023/01/31 02:21:58;;;;;;;7.23;4.50;;;;;;;5.82;52.85;98928.47;5052565;28;20218;-55
2023/01/31 02:25:09;;;;;;;7.27;4.70;;;;;;;5.78;53.56;98935.19;5051968;28;20215;-54
2023/01/31 02:28:26;;;;;;;5.50;4.00;;;;;;;5.84;53.16;98931.91;5051699;28;20678;-54
2023/01/31 02:31:28;;;;;;;5.63;4.10;;;;;;;5.81;52.67;98932.72;4959360;28;20250;-54
2023/01/31 02:34:02;;;;;;;6.53;4.50;;;;;;;5.87;53.20;98937.13;5051087;28;20699;-54
2023/01/31 02:36:41;;;;;;;7.83;3.93;;;;;;;5.88;52.61;98939.72;5052280;28;20216;-54
2023/01/31 02:39:17;;;;;;;5.17;3.83;;;;;;;5.90;52.57;98939.78;5052156;28;20198;-54
2023/01/31 02:41:52;;;;;;;5.40;3.70;;;;;;;5.98;51.39;98945.06;5052180;28;20201;-54
2023/01/31 02:47:23;;;;;;;3.83;3.33;;;;;;;6.07;50.92;98942.75;5055886;28;20196;-54
2023/01/31 02:49:57;;;;;;;4.13;3.17;;;;;;;6.10;50.73;98937.72;5056627;28;20195;-54
2023/01/31 02:52:32;;;;;;;4.67;3.73;;;;;;;6.14;49.93;98935.28;5056108;28;20242;-54
2023/01/31 02:57:57;;;;;;;5.77;2.90;;;;;;;6.22;49.60;98931.22;5055878;28;20281;-54
2023/01/31 03:00:25;;;;;;;5.53;3.20;;;;;;;6.31;49.02;98928.91;5055261;28;20190;-54
2023/01/31 03:02:52;;;;;;;4.87;3.00;;;;;;;6.30;48.25;98928.84;5055337;28;20202;-54
2023/01/31 03:05:21;;;;;;;3.53;2.67;;;;;;;6.41;48.42;98930.84;5055332;28;20548;-54
2023/01/31 03:07:52;;;;;;;3.10;2.80;;;;;;;6.40;48.46;98925.72;5041871;28;20199;-54
2023/01/31 03:10:29;;;;;;;4.00;3.07;;;;;;;6.44;48.05;98930.91;5046856;28;20192;-54
2023/01/31 03:13:10;;;;;;;3.73;3.20;;;;;;;6.50;47.74;98925.09;5043586;28;20659;-54
2023/01/31 03:18:38;;;;;;;4.23;3.10;;;;;;;6.44;48.48;98930.91;5035229;28;20188;-54
2023/01/31 03:21:13;;;;;;;3.23;2.83;;;;;;;6.51;48.81;98935.31;5038170;28;20200;-54
2023/01/31 03:23:44;;;;;;;3.67;3.10;;;;;;;6.25;48.13;98895.59;5044629;28;20256;-54
2023/01/31 03:26:11;;;;;;;4.40;3.40;;;;;;;6.40;47.82;98928.25;5038327;28;20202;-55
2023/01/31 03:28:41;;;;;;;5.83;4.10;;;;;;;6.43;47.79;98938.50;5035405;28;20195;-54
2023/01/31 03:31:17;;;;;;;6.43;4.40;;;;;;;6.43;47.17;98928.31;5054073;28;20668;-54
2023/01/31 03:33:47;;;;;;;6.80;4.33;;;;;;;6.38;47.26;98933.31;5054963;28;20584;-52
2023/01/31 03:36:25;;;;;;;7.07;4.63;;;;;;;6.30;47.50;98937.38;5052641;28;20698;-53
2023/01/31 03:39:00;;;;;;;7.73;5.07;;;;;;;6.31;47.42;98944.22;5052750;28;20270;-54
2023/01/31 03:41:34;;;;;;;6.80;4.57;;;;;;;6.28;47.70;98944.13;5044464;28;20209;-54
2023/01/31 03:44:06;;;;;;;6.00;4.70;;;;;;;6.21;47.73;98954.13;5042297;28;20200;-54
2023/01/31 03:46:38;;;;;;;6.27;5.00;;;;;;;6.11;47.74;98950.50;5053978;28;20260;-55
2023/01/31 03:49:10;;;;;;;9.67;5.10;;;;;;;6.09;47.61;98947.06;5055051;28;20249;-54
2023/01/31 03:52:11;;;;;;;7.63;5.23;;;;;;;6.05;47.31;98950.34;5049901;28;20205;-54
2023/01/31 03:54:44;;;;;;;9.00;5.40;;;;;;;5.97;47.23;98956.06;5027941;28;20304;-54
2023/01/31 03:57:17;;;;;;;8.93;5.60;;;;;;;5.94;46.70;98951.75;5027405;28;20628;-54
2023/01/31 03:59:47;;;;;;;8.40;5.17;;;;;;;5.93;47.15;98950.03;5030909;28;20660;-52
2023/01/31 04:02:17;;;;;;;8.93;5.63;;;;;;;5.90;45.73;98955.06;5034697;28;20250;-54
2023/01/31 04:04:48;;;;;;;10.87;6.43;;;;;;;5.88;44.89;98956.69;5034388;28;20722;-53
2023/01/31 04:07:17;;;;;;;10.77;6.40;;;;;;;5.86;45.63;98959.22;5032734;28;20277;-54
2023/01/31 04:09:45;;;;;;;10.67;6.10;;;;;;;5.87;44.88;98955.84;5023073;28;20226;-54
2023/01/31 04:12:13;;;;;;;8.53;6.33;;;;;;;5.72;45.10;98951.97;5034498;28;20195;-52
2023/01/31 04:14:40;;;;;;;9.90;6.07;;;;;;;5.75;44.93;98965.69;5034355;28;20227;-53
2023/01/31 04:17:07;;;;;;;10.97;7.03;;;;;;;5.70;45.78;98968.94;5032974;28;20200;-53
2023/01/31 04:19:34;;;;;;;12.07;6.93;;;;;;;5.70;45.33;98977.44;5032231;28;20197;-53
2023/01/31 04:22:01;;;;;;;10.30;6.87;;;;;;;5.66;44.99;98982.44;5029220;28;20195;-53
2023/01/31 04:24:29;;;;;;;12.30;7.33;;;;;;;5.67;45.71;98976.47;5033779;28;20255;-54
2023/01/31 04:26:56;;;;;;;13.53;7.70;;;;;;;5.58;46.32;98981.31;5034018;28;20187;-52
2023/01/31 04:29:22;;;;;;;10.17;6.93;;;;;;;5.52;47.07;98992.22;5033897;28;20239;-52
2023/01/31 04:31:49;;;;;;;13.83;8.33;;;;;;;5.49;46.57;98983.63;5033790;28;20577;-52
2023/01/31 04:34:19;;;;;;;12.93;8.47;;;;;;;5.40;47.32;98980.81;5033681;28;20755;-54
2023/01/31 04:36:46;;;;;;;15.37;7.73;;;;;;;5.35;47.85;98989.22;5033662;28;20231;-52
2023/01/31 04:39:14;;;;;;;14.73;8.63;;;;;;;5.24;47.58;98982.09;5033507;28;20669;-52
2023/01/31 04:41:42;;;;;;;13.70;9.07;;;;;;;5.23;48.49;98993.94;5033553;28;20191;-54
2023/01/31 04:44:10;;;;;;;16.50;8.57;;;;;;;5.23;48.85;99024.50;5033743;28;20258;-53
2023/01/31 04:46:37;;;;;;;11.73;7.97;;;;;;;5.18;49.62;98990.41;5033141;28;20190;-53
2023/01/31 04:49:04;;;;;;;14.03;9.07;;;;;;;5.13;48.99;99022.50;5033327;28;20196;-53
2023/01/31 04:51:31;;;;;;;11.87;8.67;;;;;;;5.16;49.77;99017.50;5033137;28;20185;-53
2023/01/31 04:53:58;;;;;;;13.60;9.03;;;;;;;5.03;49.65;99017.94;5033214;28;20280;-54
2023/01/31 04:56:25;;;;;;;14.43;10.07;;;;;;;5.07;50.28;99016.38;5033100;28;20188;-52
2023/01/31 04:58:53;;;;;;;13.60;9.23;;;;;;;5.01;49.87;99005.97;5033585;28;20663;-53
2023/01/31 05:01:20;;;;;;;12.70;9.23;;;;;;;5.07;50.01;99013.81;5033340;28;20197;-53
2023/01/31 05:03:47;;;;;;;15.67;9.37;;;;;;;5.06;50.26;99017.16;5033288;28;20659;-53
2023/01/31 05:06:13;;;;;;;15.77;9.70;;;;;;;4.97;50.24;99012.66;5033129;28;20645;-52
2023/01/31 05:08:40;;;;;;;19.97;9.30;;;;;;;4.89;50.50;98990.38;5027382;28;20196;-56
2023/01/31 05:11:08;;;;;;;12.73;8.30;;;;;;;4.95;50.68;99000.69;5012067;28;20201;-53
2023/01/31 05:13:37;;;;;;;14.23;9.07;;;;;;;4.85;50.56;99002.13;5015391;28;20217;-53
2023/01/31 05:16:07;;;;;;;12.77;8.57;;;;;;;4.83;50.38;99007.97;5033000;28;20186;-53
2023/01/31 05:18:35;;;;;;;16.10;9.67;;;;;;;4.81;50.71;99005.38;5033420;28;20285;-54
2023/01/31 05:21:02;;;;;;;13.90;8.50;;;;;;;4.75;51.56;99028.13;5033544;28;20194;-53
2023/01/31 05:23:29;;;;;;;17.87;9.03;;;;;;;4.71;51.97;99016.97;5032717;28;20198;-53
2023/01/31 05:25:56;;;;;;;19.47;8.93;;;;;;;4.68;52.58;99021.09;5032562;28;20197;-53
2023/01/31 05:28:24;;;;;;;10.53;8.03;;;;;;;4.60;52.32;99020.84;5031525;28;20205;-53
2023/01/31 05:30:51;;;;;;;14.90;9.57;;;;;;;4.63;51.62;99020.09;5032704;28;20187;-53
2023/01/31 05:33:20;;;;;;;13.60;8.87;;;;;;;4.62;52.63;99020.88;5032316;28;20246;-54
2023/01/31 05:35:47;;;;;;;12.97;8.20;;;;;;;4.68;52.18;99021.94;5032335;28;20195;-53
2023/01/31 05:38:13;;;;;;;14.07;8.43;;;;;;;4.66;51.66;99027.81;5032489;28;20741;-53
2023/01/31 05:40:40;;;;;;;12.87;9.10;;;;;;;4.64;52.26;99034.53;5032461;28;20197;-53
2023/01/31 05:43:07;;;;;;;13.83;8.07;;;;;;;4.65;51.97;99048.97;5032504;28;20254;-53
2023/01/31 05:45:34;;;;;;;19.20;8.90;;;;;;;4.67;51.19;99034.59;5032610;28;20284;-53
2023/01/31 05:48:01;;;;;;;12.07;8.23;;;;;;;4.58;51.08;99021.63;5032110;28;20193;-53
2023/01/31 05:50:29;;;;;;;16.43;9.27;;;;;;;4.70;51.61;99042.34;5032325;28;20616;-53
2023/01/31 05:53:01;;;;;;;11.20;8.17;;;;;;;4.53;51.70;99008.72;5032638;28;20637;-53
2023/01/31 05:55:29;;;;;;;12.03;8.47;;;;;;;4.65;52.41;99034.56;5032530;28;20199;-53
2023/01/31 05:57:56;;;;;;;12.53;8.70;;;;;;;4.67;52.74;99039.69;5032136;28;20190;-53
2023/01/31 06:00:23;;;;;;;14.50;9.10;;;;;;;4.65;52.69;99043.88;5031866;28;20189;-53
2023/01/31 06:02:50;;;;;;;14.97;9.67;;;;;;;4.58;52.98;99049.59;5032082;28;20200;-53
2023/01/31 06:05:17;;;;;;;13.33;8.50;;;;;;;4.54;53.66;99063.03;5031928;28;20200;-53
2023/01/31 06:07:45;;;;;;;13.67;9.07;;;;;;;4.58;53.77;99064.88;5031839;28;20189;-53
2023/01/31 06:10:12;;;;;;;14.50;8.73;;;;;;;4.61;53.62;99082.78;5030828;28;20210;-53
2023/01/31 06:12:39;;;;;;;15.00;9.10;;;;;;;4.55;53.84;99077.47;5024282;28;20248;-53
2023/01/31 06:15:07;;;;;;;13.57;8.87;;;;;;;4.61;53.88;99090.41;5011846;28;20282;-53
2023/01/31 06:17:34;;;;;;;16.73;9.23;;;;;;;4.52;54.27;99049.41;5011707;28;20200;-53
2023/01/31 06:20:00;;;;;;;13.60;8.47;;;;;;;4.64;54.16;99077.78;5011797;28;20203;-53
2023/01/31 06:22:27;;;;;;;12.33;9.20;;;;;;;4.70;54.13;99070.34;5011854;28;20190;-53
2023/01/31 06:24:55;;;;;;;17.73;9.13;;;;;;;4.74;53.66;99080.69;5012258;28;20578;-53
2023/01/31 06:27:22;;;;;;;13.07;8.17;;;;;;;4.79;53.56;99075.72;5011578;28;20201;-53
2023/01/31 06:29:49;;;;;;;12.60;8.60;;;;;;;4.81;53.00;99081.72;5011469;28;20666;-53
2023/01/31 06:32:16;;;;;;;11.80;8.57;;;;;;;4.95;52.98;99077.94;5011570;28;20206;-53
2023/01/31 06:34:42;;;;;;;13.43;8.37;;;;;;;4.95;51.98;99077.94;5011493;28;20222;-53
2023/01/31 06:37:10;;;;;;;12.93;8.37;;;;;;;5.01;52.29;99085.78;5011217;28;20323;-53
2023/01/31 06:39:36;;;;;;;14.73;8.70;;;;;;;4.96;52.58;99084.78;5011721;28;20196;-53
2023/01/31 06:42:05;;;;;;;11.53;8.40;;;;;;;4.99;52.38;99092.50;5026911;28;20254;-53
2023/01/31 06:44:32;;;;;;;16.77;8.60;;;;;;;5.10;53.54;99108.13;5031891;28;20203;-53
2023/01/31 06:46:59;;;;;;;12.43;8.43;;;;;;;5.24;52.92;99083.94;5030193;28;20189;-53
2023/01/31 06:49:26;;;;;;;13.20;8.47;;;;;;;5.32;52.65;99106.28;5024251;28;20737;-54
2023/01/31 06:51:53;;;;;;;16.57;9.13;;;;;;;5.44;52.62;99092.19;5030142;28;20686;-53
2023/01/31 06:54:20;;;;;;;11.43;7.57;;;;;;;5.49;51.76;99100.81;5027803;28;20214;-53
2023/01/31 06:56:47;;;;;;;11.23;6.97;;;;;;;5.51;52.36;99109.38;5028717;28;20192;-54
2023/01/31 06:59:15;;;;;;;10.43;7.80;;;;;;;5.54;52.50;99110.34;5030026;28;20258;-53
2023/01/31 07:01:42;;;;;;;13.63;7.30;;;;;;;5.68;52.48;99110.75;5028107;28;20192;-53
2023/01/31 07:04:09;;;;;;;10.93;8.00;;;;;;;5.72;52.31;99120.19;5029975;28;20197;-54
2023/01/31 07:06:36;;;;;;;10.67;7.73;;;;;;;5.79;52.12;99100.03;5029715;28;20565;-53
2023/01/31 07:09:03;;;;;;;10.43;7.37;;;;;;;5.79;51.96;99117.00;5026408;28;20197;-53
2023/01/31 07:11:30;;;;;;;11.33;8.27;;;;;;;5.80;51.89;99121.28;5024109;28;20203;-52
2023/01/31 07:13:57;;;;;;;12.37;8.57;;;;;;;5.90;51.97;99131.84;5031184;28;20255;-53
2023/01/31 07:16:25;;;;;;;10.87;7.40;;;;;;;5.87;52.12;99131.75;5031050;28;20754;-52
2023/01/31 07:18:52;;;;;;;11.03;7.77;;;;;;;5.88;52.25;99122.38;5030998;28;20207;-53
2023/01/31 07:21:21;;;;;;;11.63;8.50;;;;;;;5.96;51.71;99131.13;5031022;28;20229;-56
2023/01/31 07:23:47;;;;;;;12.37;7.90;;;;;;;5.97;51.88;99127.75;5030944;28;20199;-55
2023/01/31 07:26:14;;;;;;;11.77;7.63;;;;;;;5.91;52.05;99130.13;5031196;28;20194;-54
2023/01/31 07:28:41;;;;;;;10.47;7.77;;;;;;;6.05;52.43;99140.72;5030960;28;20258;-54
2023/01/31 07:31:11;;;;;;;11.70;7.83;;;;;;;6.07;51.74;99136.53;5031525;28;20683;-55
2023/01/31 07:33:40;;;;;;;15.37;8.30;;;;;;;6.12;51.78;99151.16;5017315;28;20631;-54
2023/01/31 07:36:10;;;;;;;9.40;6.90;;;;;;;6.14;51.71;99139.31;5028465;28;20592;-55
2023/01/31 07:38:37;;;;;;;9.77;7.20;;;;;;;6.18;51.25;99151.28;5032474;28;20577;-56
2023/01/31 07:41:04;;;;;;;10.27;6.87;;;;;;;6.26;51.48;99146.44;5026283;28;20190;-54
2023/01/31 07:43:32;;;;;;;8.93;6.10;;;;;;;6.36;51.04;99146.72;5024122;28;20194;-53
2023/01/31 07:45:59;;;;;;;16.63;6.97;;;;;;;6.37;50.34;99139.94;5014587;28;20192;-53
2023/01/31 07:48:26;;;;;;;10.50;7.57;;;;;;;6.49;50.37;99153.88;5015269;28;20192;-54
2023/01/31 07:50:59;;;;;;;12.20;6.83;;;;;;;6.60;49.87;99156.69;5014625;28;20223;-52
2023/01/31 07:53:27;;;;;;;9.73;7.53;;;;;;;6.69;49.73;99163.75;5015175;28;20606;-52
2023/01/31 07:55:54;;;;;;;7.23;5.93;;;;;;;6.67;49.33;99173.06;5014455;28;20231;-52
2023/01/31 07:58:21;;;;;;;7.40;5.70;;;;;;;6.63;49.28;99148.25;5014277;28;20197;-53
2023/01/31 08:03:35;;;;;;;10.73;5.93;;;;;;;6.57;48.40;99150.66;5014518;28;20204;-53
2023/01/31 08:06:08;;;;;;;7.90;6.10;;;;;;;6.72;48.55;99154.47;5021546;28;20185;-53
2023/01/31 08:08:35;;;;;;;7.83;6.03;;;;;;;6.79;48.22;99163.13;5023532;28;20200;-53
2023/01/31 08:11:03;;;;;;;8.23;5.40;;;;;;;6.80;48.71;99165.75;5022691;28;20246;-52
2023/01/31 08:13:30;;;;;;;9.17;6.03;;;;;;;6.80;48.08;99170.88;5023043;28;20203;-52
2023/01/31 08:15:58;;;;;;;10.30;6.07;;;;;;;6.90;49.01;99169.38;5022758;28;20306;-55
2023/01/31 08:18:25;;;;;;;8.77;5.77;;;;;;;7.13;49.45;99175.94;5026735;28;20211;-53
2023/01/31 08:20:52;;;;;;;9.10;6.30;;;;;;;7.30;48.71;99178.91;5023931;28;20195;-53
2023/01/31 08:23:20;;;;;;;8.23;5.27;;;;;;;7.21;47.77;99179.56;5024466;28;20201;-53
2023/01/31 08:25:47;;;;;;;11.03;6.43;;;;;;;7.30;47.96;99177.22;5022116;28;20676;-53
2023/01/31 08:28:14;;;;;;;11.37;6.50;;;;;;;7.30;48.13;99172.13;5023755;28;20349;-53
2023/01/31 08:30:41;;;;;;;10.10;5.93;;;;;;;7.27;48.04;99172.03;5023715;28;20185;-54
2023/01/31 08:33:09;;;;;;;8.27;5.80;;;;;;;7.31;47.50;99173.81;5022419;28;20196;-54
2023/01/31 08:35:39;;;;;;;9.30;6.47;;;;;;;7.40;47.46;99183.41;5024685;28;20645;-53
2023/01/31 08:38:06;;;;;;;9.07;6.00;;;;;;;7.33;46.96;99173.88;5025200;28;20196;-53
2023/01/31 08:40:34;;;;;;;7.23;6.10;;;;;;;7.33;47.25;99186.66;5026152;28;20201;-52
2023/01/31 08:43:01;;;;;;;9.77;6.03;;;;;;;7.37;47.47;99179.09;5027180;28;20211;-52
2023/01/31 08:45:28;;;;;;;7.80;5.67;;;;;;;7.35;47.80;99162.88;5032658;28;20200;-54
2023/01/31 08:47:56;;;;;;;10.23;6.00;;;;;;;7.59;47.14;99176.19;5024482;28;20280;-52
2023/01/31 08:50:25;;;;;;;7.83;5.77;;;;;;;7.68;47.14;99183.22;5026029;28;20657;-52
2023/01/31 08:52:53;;;;;;;9.30;6.37;;;;;;;7.56;47.56;99185.47;5021887;28;20662;-52
2023/01/31 08:55:21;;;;;;;8.73;6.20;;;;;;;7.51;46.91;99195.59;5022820;28;20224;-53
2023/01/31 08:57:50;;;;;;;7.53;5.83;;;;;;;7.54;47.39;99189.69;5019638;28;20203;-50
2023/01/31 09:00:18;;;;;;;11.10;6.63;;;;;;;7.42;47.22;99190.28;5021185;28;20200;-52
2023/01/31 09:02:50;;;;;;;10.45;7.70;;;;;;;7.17;47.36;99131.75;5021164;28;20935;-53
2023/01/31 09:05:17;;;;;;;8.30;6.73;;;;;;;7.52;48.03;99188.81;5024449;28;20199;-53
2023/01/31 09:07:44;;;;;;;11.37;6.83;;;;;;;7.43;47.16;99197.13;5021223;28;20212;-54
2023/01/31 09:10:11;;;;;;;9.47;6.70;;;;;;;7.39;47.92;99197.88;5022399;28;20196;-53
2023/01/31 09:12:38;;;;;;;12.73;7.23;;;;;;;7.36;48.14;99197.78;5023455;28;20195;-53
2023/01/31 09:15:08;;;;;;;8.67;6.83;;;;;;;7.39;47.73;99191.91;5022597;28;20216;-52
2023/01/31 09:17:34;;;;;;;8.10;6.20;;;;;;;7.54;47.63;99198.25;5032266;28;20680;-53
2023/01/31 09:20:05;;;;;;;10.47;6.13;;;;;;;7.54;47.21;99205.91;5032851;28;20241;-53
2023/01/31 09:22:33;;;;;;;7.27;5.97;;;;;;;7.68;47.32;99204.53;5032481;28;20247;-53
2023/01/31 09:25:00;;;;;;;9.37;6.73;;;;;;;7.70;46.85;99207.13;5024053;28;20256;-53
2023/01/31 09:27:27;;;;;;;7.70;5.47;;;;;;;7.70;46.15;99176.44;5012880;28;20189;-53
2023/01/31 09:29:54;;;;;;;9.70;6.67;;;;;;;7.93;46.34;99197.41;5012756;28;20221;-53
2023/01/31 09:32:22;;;;;;;9.20;5.57;;;;;;;7.91;45.84;99186.28;5012620;28;20654;-53
2023/01/31 09:34:50;;;;;;;10.60;5.77;;;;;;;7.82;45.80;99192.06;5012710;28;20217;-54
2023/01/31 09:37:17;;;;;;;8.97;4.90;;;;;;;7.76;46.03;99180.81;5012194;28;20311;-53
2023/01/31 09:39:44;;;;;;;7.43;5.87;;;;;;;7.61;46.55;99177.09;5012547;28;20193;-53
2023/01/31 09:42:20;;;;;;;7.20;5.53;;;;;;;7.61;46.95;99191.56;5012290;28;20283;-53
2023/01/31 09:44:57;;;;;;;7.47;5.80;;;;;;;7.64;46.94;99178.84;5029131;28;20223;-54
2023/01/31 09:47:28;;;;;;;7.90;5.90;;;;;;;7.68;46.69;99148.28;5024108;28;20205;-54
2023/01/31 09:50:00;;;;;;;8.43;6.17;;;;;;;7.91;46.62;99166.66;5020552;28;20188;-53
2023/01/31 09:52:29;;;;;;;13.00;7.10;;;;;;;8.01;46.78;99163.50;5021457;28;20189;-54
2023/01/31 09:54:56;;;;;;;7.40;5.93;;;;;;;8.10;46.88;99163.66;5021822;28;20222;-52
2023/01/31 09:57:32;;;;;;;9.13;6.43;;;;;;;8.14;45.98;99160.34;5020968;28;20186;-53
2023/01/31 10:00:09;;;;;;;9.07;5.67;;;;;;;8.14;45.65;99169.72;5020716;28;20649;-52
2023/01/31 10:03:20;;;;;;;11.17;5.43;;;;;;;8.19;44.81;99148.50;5020307;28;20558;-51
2023/01/31 10:05:51;;;;;;;6.77;5.13;;;;;;;8.01;44.58;99143.03;4980745;28;20203;-52
2023/01/31 10:08:27;;;;;;;9.03;4.83;;;;;;;7.98;45.00;99129.31;5023102;28;20184;-51
2023/01/31 10:10:56;;;;;;;5.70;5.00;;;;;;;7.62;44.92;99045.03;5031906;28;20275;-52
2023/01/31 10:13:32;;;;;;;5.90;4.83;;;;;;;8.20;44.34;99134.03;5021278;28;20240;-53
2023/01/31 10:16:09;;;;;;;9.43;5.87;;;;;;;8.27;44.90;99139.31;5020984;28;20984;-53
2023/01/31 10:18:44;;;;;;;6.33;4.90;;;;;;;8.31;44.02;99135.13;5031420;28;20245;-53
2023/01/31 10:21:15;;;;;;;6.90;4.97;;;;;;;8.27;44.31;99121.41;5031526;28;20199;-52
2023/01/31 10:23:47;;;;;;;5.90;4.67;;;;;;;8.30;44.18;99121.47;5026184;28;20566;-54
2023/01/31 10:26:19;;;;;;;6.83;4.90;;;;;;;8.29;45.47;99134.25;5024459;28;20653;-54
2023/01/31 10:28:51;;;;;;;6.00;4.23;;;;;;;8.31;44.10;99119.78;5021434;28;20200;-53
2023/01/31 10:31:29;;;;;;;6.93;4.87;;;;;;;8.41;43.71;99125.91;5019532;28;20216;-53
2023/01/31 10:34:03;;;;;;;6.30;4.80;;;;;;;8.40;43.84;99122.50;5011573;28;20689;-53
2023/01/31 10:36:34;;;;;;;7.33;4.63;;;;;;;8.50;44.19;99114.16;5012122;28;20244;-54
2023/01/31 10:39:08;;;;;;;7.13;4.97;;;;;;;8.63;43.95;99112.66;5011493;28;20404;-53
2023/01/31 10:41:44;;;;;;;6.17;5.27;;;;;;;8.57;44.29;99118.53;5012337;28;20562;-52
2023/01/31 10:44:21;;;;;;;7.47;4.70;;;;;;;8.53;44.07;99100.53;5011826;28;20193;-53
2023/01/31 10:46:48;;;;;;;8.80;5.47;;;;;;;8.61;44.00;99104.97;5023777;28;20193;-52
2023/01/31 10:49:18;;;;;;;9.50;5.93;;;;;;;8.68;44.13;99095.72;5022562;28;20185;-53
2023/01/31 10:52:03;;;;;;;8.67;5.13;;;;;;;8.49;44.52;99070.63;5020159;28;20189;-52
2023/01/31 10:54:39;;;;;;;9.73;5.63;;;;;;;8.68;43.76;99093.16;5021550;28;20246;-52
2023/01/31 10:57:06;;;;;;;5.13;4.57;;;;;;;8.55;43.62;99086.06;5021564;28;20188;-53
2023/01/31 10:59:36;;;;;;;9.63;5.23;;;;;;;8.76;43.60;99105.22;5021263;28;20186;-52
2023/01/31 11:02:04;;;;;;;7.37;5.10;;;;;;;8.87;43.55;99080.66;5022488;28;20200;-53
2023/01/31 11:04:38;;;;;;;6.40;5.10;;;;;;;9.04;43.29;99069.81;5019933;28;20192;-53
2023/01/31 11:07:05;;;;;;;8.35;5.88;;;;;;;9.16;42.69;99078.56;5021356;28;20461;-52
2023/01/31 11:09:35;;;;;;;6.93;5.90;;;;;;;9.29;42.44;99074.44;5017563;28;20204;-54
2023/01/31 11:12:04;;;;;;;5.67;5.03;;;;;;;9.34;42.31;99078.81;5035445;28;20573;-54
2023/01/31 11:14:31;;;;;;;5.90;5.27;;;;;;;9.46;42.02;99089.25;5032600;28;20189;-53
2023/01/31 11:17:02;;;;;;;7.60;5.67;;;;;;;9.38;41.98;99085.72;5027074;28;20220;-52
2023/01/31 11:19:37;;;;;;;6.70;4.87;;;;;;;9.35;42.46;99077.09;5025209;28;20246;-52
2023/01/31 11:22:05;;;;;;;6.13;5.50;;;;;;;9.40;42.61;99072.91;5024255;28;20658;-53
2023/01/31 11:24:34;;;;;;;9.97;5.97;;;;;;;9.58;42.59;99091.13;5024347;28;20275;-52
2023/01/31 11:27:03;;;;;;;11.10;5.47;;;;;;;9.36;42.46;99096.78;5031701;28;20212;-53
2023/01/31 11:29:34;;;;;;;6.80;5.30;;;;;;;9.35;42.50;99082.25;5030913;28;20677;-54
2023/01/31 11:32:05;;;;;;;8.30;5.43;;;;;;;9.30;42.32;99065.94;5033094;28;20596;-54
2023/01/31 11:34:32;;;;;;;7.13;5.60;;;;;;;9.34;42.18;99062.56;5034340;28;20200;-53
2023/01/31 11:37:16;;;;;;;8.13;5.23;;;;;;;9.27;42.56;99082.13;5034068;28;20236;-53
2023/01/31 11:39:54;;;;;;;6.00;5.43;;;;;;;9.21;43.30;99076.91;5033961;28;20188;-53
2023/01/31 11:42:20;;;;;;;7.07;5.60;;;;;;;9.20;42.59;99070.06;5034137;28;20205;-53
2023/01/31 11:44:55;;;;;;;8.15;6.20;;;;;;;8.98;43.18;99055.22;5020124;28;20454;-53
2023/01/31 11:47:32;;;;;;;7.90;6.23;;;;;;;9.03;43.71;99058.72;5022922;28;20297;-53
2023/01/31 11:50:00;;;;;;;9.27;5.57;;;;;;;8.94;44.02;99056.00;5025014;28;20218;-60
2023/01/31 11:52:32;;;;;;;9.03;5.77;;;;;;;8.91;43.97;99063.63;5034438;28;20185;-53
2023/01/31 11:55:02;;;;;;;9.83;6.23;;;;;;;8.90;44.45;99056.78;5034127;28;20210;-55
2023/01/31 11:57:33;;;;;;;7.53;5.87;;;;;;;8.90;44.70;99070.44;5033660;28;20686;-52
2023/01/31 12:00:02;;;;;;;6.20;5.60;;;;;;;8.74;45.33;99063.34;5033929;28;20190;-54